Time;durP1;ratioP1;P1;durP2;ratioP2;P2;SDS_P1;SDS_P2;PMS_P1;PMS_P2;Temp;Humidity;BMP_temperature;BMP_pressure;BME280_temperature;BME280_humidity;BME280_pressure;Samples;Min_cycle;Max_cycle;Signal;HPM_P1;HPM_P2
2022/11/02 00:00:24;;;;;;;34.07;9.50;;;8.80;99.50;;;;;;5069662;28;20613;-61
2022/11/02 00:02:50;;;;;;;44.90;8.27;;;8.70;99.60;;;;;;5059897;28;20482;-62
2022/11/02 00:05:22;;;;;;;41.57;10.87;;;8.80;99.90;;;;;;5082351;28;20482;-61
2022/11/02 00:07:52;;;;;;;44.47;9.27;;;8.90;99.80;;;;;;5068592;28;20479;-61
2022/11/02 00:10:19;;;;;;;61.27;13.30;;;;;;;;;;5068287;28;20867;-61
2022/11/02 00:12:46;;;;;;;66.27;11.87;;;;;;;;;;5056328;28;20481;-61
2022/11/02 00:15:13;;;;;;;43.80;10.83;;;;;;;;;;5072249;28;20868;-61
2022/11/02 00:17:44;;;;;;;43.40;10.77;;;9.00;99.90;;;;;;5070378;28;20486;-61
2022/11/02 00:20:13;;;;;;;48.50;12.80;;;;;;;;;;5056063;28;20485;-61
2022/11/02 00:22:40;;;;;;;38.23;9.60;;;;;;;;;;5069702;28;20744;-62
2022/11/02 00:25:11;;;;;;;27.90;8.90;;;9.00;99.90;;;;;;5072562;28;20474;-62
2022/11/02 00:27:38;;;;;;;42.27;8.90;;;9.10;99.90;;;;;;5067083;28;20561;-61
2022/11/02 00:30:06;;;;;;;62.07;10.83;;;;;;;;;;5068247;28;20509;-62
2022/11/02 00:32:32;;;;;;;43.87;11.43;;;9.20;99.90;;;;;;5068751;28;20475;-62
2022/11/02 00:35:00;;;;;;;44.17;9.47;;;9.20;99.90;;;;;;5067575;28;20489;-61
2022/11/02 00:37:27;;;;;;;70.27;12.83;;;;;;;;;;5064861;28;21140;-61
2022/11/02 00:39:54;;;;;;;89.83;12.57;;;;;;;;;;5065339;28;20527;-61
2022/11/02 00:42:22;;;;;;;86.63;15.83;;;;;;;;;;5073216;28;20822;-61
2022/11/02 00:44:49;;;;;;;32.13;8.00;;;;;;;;;;5067402;28;20553;-61
2022/11/02 00:47:16;;;;;;;36.30;10.73;;;;;;;;;;5060941;28;20475;-61
2022/11/02 00:49:42;;;;;;;35.33;8.13;;;9.40;99.90;;;;;;5068036;28;20798;-61
2022/11/02 00:52:10;;;;;;;36.47;6.80;;;9.30;99.90;;;;;;5065934;28;21025;-61
2022/11/02 00:54:37;;;;;;;25.93;7.93;;;9.30;99.90;;;;;;5065631;28;20491;-60
2022/11/02 00:57:04;;;;;;;46.93;9.33;;;9.30;99.90;;;;;;5067708;28;20474;-60
2022/11/02 00:59:31;;;;;;;41.87;10.83;;;9.40;99.90;;;;;;5061751;28;21113;-60
2022/11/02 01:01:58;;;;;;;32.63;7.83;;;9.40;99.90;;;;;;5065288;28;20817;-60
2022/11/02 01:04:24;;;;;;;52.87;12.10;;;9.30;99.90;;;;;;5080360;28;20817;-60
2022/11/02 01:06:51;;;;;;;90.63;14.30;;;;;;;;;;5068319;28;20487;-60
2022/11/02 01:09:20;;;;;;;88.67;15.73;;;9.30;99.90;;;;;;5071894;28;20473;-60
2022/11/02 01:11:47;;;;;;;45.80;10.13;;;9.30;99.90;;;;;;5069252;28;20494;-60
2022/11/02 01:14:14;;;;;;;43.40;8.73;;;9.30;99.90;;;;;;5067248;28;20485;-61
2022/11/02 01:16:43;;;;;;;28.43;8.67;;;;;;;;;;5079803;28;20504;-61
2022/11/02 01:19:11;;;;;;;30.33;8.83;;;;;;;;;;5057138;28;20476;-61
2022/11/02 01:21:38;;;;;;;29.73;7.97;;;;;;;;;;5071330;28;20573;-61
2022/11/02 01:24:05;;;;;;;32.10;7.90;;;9.20;99.90;;;;;;5076173;28;20747;-61
2022/11/02 01:26:33;;;;;;;26.43;7.73;;;9.10;99.90;;;;;;5068145;28;20838;-60
2022/11/02 01:29:00;;;;;;;25.97;7.13;;;;;;;;;;5071245;28;20525;-60
2022/11/02 01:31:27;;;;;;;38.23;6.67;;;9.20;99.90;;;;;;5065921;28;20477;-61
2022/11/02 01:33:54;;;;;;;17.67;5.77;;;9.20;99.90;;;;;;5090248;28;20474;-61
2022/11/02 01:36:20;;;;;;;28.83;7.63;;;9.20;99.90;;;;;;5072908;28;21029;-61
2022/11/02 01:38:48;;;;;;;45.27;8.20;;;9.20;99.90;;;;;;5070220;28;20547;-60
2022/11/02 01:41:15;;;;;;;37.33;7.27;;;;;;;;;;5076000;28;20482;-61
2022/11/02 01:43:45;;;;;;;26.57;6.70;;;9.10;99.90;;;;;;5071086;28;20485;-61
2022/11/02 01:46:18;;;;;;;53.03;10.57;;;9.10;99.90;;;;;;5074205;28;20501;-60
2022/11/02 01:48:48;;;;;;;43.53;7.63;;;9.10;99.90;;;;;;5068727;28;20490;-61
2022/11/02 01:51:17;;;;;;;85.63;12.43;;;;;;;;;;5072062;28;20497;-60
2022/11/02 01:53:46;;;;;;;79.50;10.57;;;;;;;;;;5074938;28;20489;-60
2022/11/02 01:56:18;;;;;;;55.73;9.07;;;9.50;99.90;;;;;;5076992;28;21507;-61
2022/11/02 01:58:54;;;;;;;32.20;6.67;;;9.50;99.90;;;;;;5077131;28;20470;-61
2022/11/02 02:01:21;;;;;;;63.33;11.67;;;9.60;99.90;;;;;;5075684;28;20484;-61
2022/11/02 02:03:50;;;;;;;39.83;7.70;;;9.70;99.90;;;;;;5068060;28;20978;-60
2022/11/02 02:06:17;;;;;;;44.43;10.47;;;9.80;99.90;;;;;;5084476;28;20640;-60
2022/11/02 02:08:46;;;;;;;38.93;8.03;;;;;;;;;;5068307;28;20486;-61
2022/11/02 02:11:26;;;;;;;45.13;8.13;;;10.10;99.90;;;;;;5070369;28;20477;-62
2022/11/02 02:13:55;;;;;;;44.70;7.60;;;10.20;99.90;;;;;;5072999;28;20497;-62
2022/11/02 02:16:32;;;;;;;51.33;7.70;;;12.10;99.90;;;;;;5073770;28;20491;-61
2022/11/02 02:19:06;;;;;;;21.50;6.57;;;10.50;99.90;;;;;;5070588;28;20493;-62
2022/11/02 02:21:41;;;;;;;38.07;7.60;;;10.70;99.90;;;;;;5070986;28;20498;-62
2022/11/02 02:24:21;;;;;;;35.30;9.17;;;;;;;;;;5066239;28;20505;-62
2022/11/02 02:27:06;;;;;;;28.83;8.60;;;10.80;99.90;;;;;;5070841;28;20786;-62
2022/11/02 02:29:44;;;;;;;38.20;9.27;;;10.90;99.90;;;;;;5073289;28;20482;-63
2022/11/02 02:32:14;;;;;;;68.47;10.80;;;;;;;;;;5052732;28;20988;-63
2022/11/02 02:34:46;;;;;;;42.93;7.97;;;;;;;;;;5083049;28;21057;-63
2022/11/02 02:37:18;;;;;;;41.40;10.20;;;11.00;99.90;;;;;;5059747;28;20577;-63
2022/11/02 02:39:51;;;;;;;48.87;7.90;;;;;;;;;;5077111;28;20486;-62
2022/11/02 02:42:22;;;;;;;28.93;5.20;;;11.10;99.90;;;;;;5070173;28;20478;-63
2022/11/02 02:44:57;;;;;;;15.90;4.50;;;11.10;99.90;;;;;;5079421;28;20537;-62
2022/11/02 02:47:27;;;;;;;20.60;6.90;;;10.90;99.90;;;;;;5069899;28;20726;-63
2022/11/02 02:49:57;;;;;;;31.17;6.30;;;11.20;99.90;;;;;;5071802;28;20486;-62
2022/11/02 02:52:26;;;;;;;24.40;7.00;;;11.20;99.90;;;;;;5071127;28;20472;-62
2022/11/02 02:54:57;;;;;;;33.53;5.70;;;11.30;99.90;;;;;;5079334;28;20471;-61
2022/11/02 02:57:28;;;;;;;32.87;6.63;;;11.40;99.90;;;;;;5071433;28;20474;-61
2022/11/02 02:59:56;;;;;;;25.60;6.20;;;11.50;99.90;;;;;;5078136;28;20473;-61
2022/11/02 03:02:27;;;;;;;62.33;12.30;;;11.50;99.90;;;;;;5072307;28;20478;-62
2022/11/02 03:04:54;;;;;;;52.67;7.87;;;;;;;;;;5079577;28;20478;-61
2022/11/02 03:07:25;;;;;;;59.90;13.10;;;11.60;99.90;;;;;;5067429;28;20480;-62
2022/11/02 03:09:56;;;;;;;50.23;8.20;;;;;;;;;;5040869;28;20482;-62
2022/11/02 03:12:33;;;;;;;30.37;8.33;;;11.70;99.90;;;;;;5076377;28;20470;-61
2022/11/02 03:15:10;;;;;;;38.67;8.33;;;11.70;99.90;;;;;;5066042;28;20478;-62
2022/11/02 03:17:43;;;;;;;47.37;8.17;;;;;;;;;;5074753;28;20480;-62
2022/11/02 03:20:19;;;;;;;51.13;8.93;;;11.90;99.90;;;;;;5065607;28;20833;-62
2022/11/02 03:22:49;;;;;;;42.23;7.50;;;;;;;;;;5082845;28;20711;-61
2022/11/02 03:25:21;;;;;;;22.97;6.80;;;12.00;99.90;;;;;;5066245;28;20489;-62
2022/11/02 03:27:55;;;;;;;38.23;7.47;;;12.00;99.90;;;;;;5082398;28;20893;-62
2022/11/02 03:30:24;;;;;;;44.07;9.20;;;12.00;99.90;;;;;;5073558;28;20482;-61
2022/11/02 03:32:59;;;;;;;52.40;11.50;;;12.10;99.90;;;;;;5069625;28;20479;-62
2022/11/02 03:35:33;;;;;;;36.93;9.90;;;;;;;;;;5072712;28;20485;-62
2022/11/02 03:38:04;;;;;;;46.83;8.40;;;12.20;99.90;;;;;;5073507;28;21022;-63
2022/11/02 03:40:34;;;;;;;38.47;7.03;;;;;;;;;;5071822;28;20919;-62
2022/11/02 03:43:02;;;;;;;37.07;7.07;;;12.20;99.90;;;;;;5070423;28;20478;-62
2022/11/02 03:45:37;;;;;;;46.50;8.83;;;12.30;99.90;;;;;;5064875;28;20557;-62
2022/11/02 03:48:08;;;;;;;33.60;7.67;;;12.30;99.90;;;;;;5080782;28;20829;-62
2022/11/02 03:50:38;;;;;;;32.20;7.57;;;12.40;99.90;;;;;;5055540;28;20508;-63
2022/11/02 03:53:10;;;;;;;32.97;7.57;;;12.50;99.90;;;;;;5079070;28;20477;-62
2022/11/02 03:55:42;;;;;;;32.17;8.10;;;12.50;99.90;;;;;;5055778;28;20477;-63
2022/11/02 03:58:11;;;;;;;31.30;8.10;;;;;;;;;;5070849;28;20482;-63
2022/11/02 04:00:46;;;;;;;19.23;6.30;;;12.50;99.90;;;;;;5074162;28;20494;-62
2022/11/02 04:03:14;;;;;;;28.50;6.50;;;;;;;;;;5063988;28;20970;-62
2022/11/02 04:05:40;;;;;;;25.67;7.47;;;12.50;99.90;;;;;;5074422;28;20479;-62
2022/11/02 04:08:23;;;;;;;21.63;6.93;;;12.60;99.90;;;;;;5072659;28;20584;-63
2022/11/02 04:16:26;;;;;;;24.30;6.87;;;12.50;99.90;;;;;;5075013;28;20909;-62
2022/11/02 04:21:37;;;;;;;43.73;7.27;;;12.40;99.90;;;;;;5063978;28;20573;-63
2022/11/02 04:26:49;;;;;;;65.40;11.73;;;;;;;;;;5061634;28;20550;-62
2022/11/02 04:29:16;;;;;;;32.63;9.20;;;12.40;99.90;;;;;;5072502;28;20474;-63
2022/11/02 04:31:44;;;;;;;54.47;8.27;;;;;;;;;;5073581;28;20479;-62
2022/11/02 04:34:10;;;;;;;67.43;10.40;;;12.50;99.90;;;;;;5073379;28;20547;-62
2022/11/02 04:36:37;;;;;;;39.83;6.73;;;;;;;;;;5071732;28;20470;-62
2022/11/02 04:39:03;;;;;;;47.23;9.27;;;12.40;99.90;;;;;;5071069;28;20236;-62
2022/11/02 04:41:41;;;;;;;38.70;7.53;;;12.30;99.90;;;;;;5071012;28;20840;-62
2022/11/02 04:44:09;;;;;;;35.13;7.03;;;12.30;99.90;;;;;;5073756;28;20227;-62
2022/11/02 04:46:37;;;;;;;33.27;7.70;;;12.20;99.90;;;;;;5067348;28;20610;-62
2022/11/02 04:49:06;;;;;;;48.20;8.10;;;;;;;;;;5075632;28;20741;-62
2022/11/02 04:51:34;;;;;;;26.57;6.13;;;12.30;99.90;;;;;;5061950;28;20841;-62
2022/11/02 04:54:01;;;;;;;28.73;6.97;;;12.30;99.90;;;;;;5077784;28;20858;-62
2022/11/02 04:56:28;;;;;;;15.50;6.17;;;12.20;99.90;;;;;;5063147;28;20704;-63
2022/11/02 04:58:57;;;;;;;36.73;5.60;;;12.20;99.90;;;;;;5085507;28;20486;-63
2022/11/02 05:01:25;;;;;;;55.17;12.37;;;12.20;99.90;;;;;;5067839;28;20537;-63
2022/11/02 05:03:53;;;;;;;43.07;9.07;;;;;;;;;;5069511;28;20850;-62
2022/11/02 05:06:22;;;;;;;21.37;7.30;;;12.20;99.90;;;;;;5073914;28;20478;-62
2022/11/02 05:08:49;;;;;;;35.40;6.07;;;12.20;99.90;;;;;;5075185;28;20859;-62
2022/11/02 05:11:16;;;;;;;19.20;6.13;;;12.20;99.90;;;;;;5068822;28;20486;-62
2022/11/02 05:13:44;;;;;;;34.23;7.70;;;;;;;;;;5072099;28;20474;-62
2022/11/02 05:16:12;;;;;;;35.73;8.07;;;;;;;;;;5071371;28;20807;-62
2022/11/02 05:18:39;;;;;;;25.87;5.97;;;;;;;;;;5065704;28;20474;-63
2022/11/02 05:21:06;;;;;;;28.50;7.00;;;12.20;99.90;;;;;;5078778;28;20474;-63
2022/11/02 05:23:34;;;;;;;28.73;6.80;;;12.30;99.90;;;;;;5067201;28;20495;-62
2022/11/02 05:26:02;;;;;;;21.53;5.20;;;;;;;;;;5076234;28;20490;-63
2022/11/02 05:28:30;;;;;;;30.10;7.57;;;12.30;99.90;;;;;;5071222;28;21020;-62
2022/11/02 05:30:59;;;;;;;40.13;8.27;;;12.30;99.90;;;;;;5073583;28;20478;-62
2022/11/02 05:33:27;;;;;;;16.90;6.23;;;12.30;99.90;;;;;;5070970;28;20550;-63
2022/11/02 05:35:54;;;;;;;23.70;6.80;;;12.20;99.90;;;;;;5073865;28;20549;-62
2022/11/02 05:38:21;;;;;;;56.10;11.77;;;12.30;99.90;;;;;;5067539;28;20482;-63
2022/11/02 05:40:52;;;;;;;26.00;6.10;;;12.30;99.90;;;;;;5072202;28;20478;-62
2022/11/02 05:43:19;;;;;;;59.00;11.30;;;12.20;99.90;;;;;;5070144;28;20998;-63
2022/11/02 05:45:51;;;;;;;62.13;8.90;;;;;;;;;;5071341;28;20475;-63
2022/11/02 05:48:18;;;;;;;51.30;10.27;;;12.30;99.90;;;;;;5072254;28;20578;-62
2022/11/02 05:50:45;;;;;;;59.93;8.90;;;12.40;99.90;;;;;;5073252;28;20986;-62
2022/11/02 05:53:11;;;;;;;30.90;8.63;;;12.30;99.90;;;;;;5074658;28;20478;-62
2022/11/02 05:55:38;;;;;;;58.23;7.93;;;;;;;;;;5073143;28;21004;-62
2022/11/02 05:58:07;;;;;;;45.83;7.57;;;12.40;99.90;;;;;;5071745;28;20828;-63
2022/11/02 06:00:34;;;;;;;55.33;9.90;;;;;;;;;;5059899;28;20493;-62
2022/11/02 06:03:00;;;;;;;37.97;6.93;;;12.50;99.90;;;;;;5080577;28;20485;-62
2022/11/02 06:05:27;;;;;;;25.20;5.63;;;;;;;;;;5072107;28;20481;-62
2022/11/02 06:07:58;;;;;;;23.53;6.60;;;12.40;99.90;;;;;;5081785;28;20485;-62
2022/11/02 06:10:25;;;;;;;37.57;7.00;;;12.20;99.90;;;;;;5078734;28;20510;-62
2022/11/02 06:12:54;;;;;;;13.83;4.80;;;;;;;;;;5078383;28;20481;-63
2022/11/02 06:15:23;;;;;;;20.27;6.30;;;;;;;;;;5074411;28;21000;-63
2022/11/02 06:17:50;;;;;;;22.23;6.37;;;12.30;99.90;;;;;;5073624;28;20883;-62
2022/11/02 06:20:17;;;;;;;31.73;8.00;;;;;;;;;;5061034;28;20557;-62
2022/11/02 06:22:44;;;;;;;59.63;7.53;;;12.20;99.90;;;;;;5084226;28;20483;-62
2022/11/02 06:25:12;;;;;;;54.43;8.83;;;12.20;99.90;;;;;;5071920;28;20474;-63
2022/11/02 06:27:40;;;;;;;43.07;8.10;;;;;;;;;;5062147;28;20491;-62
2022/11/02 06:30:08;;;;;;;35.10;6.93;;;12.10;99.90;;;;;;5073684;28;20481;-63
2022/11/02 06:32:36;;;;;;;31.50;7.90;;;;;;;;;;5071745;28;20478;-62
2022/11/02 06:35:03;;;;;;;43.93;8.33;;;12.20;99.90;;;;;;5074092;28;20502;-63
2022/11/02 06:37:33;;;;;;;45.33;6.50;;;12.20;99.90;;;;;;5073359;28;20998;-63
2022/11/02 06:40:01;;;;;;;69.50;9.63;;;12.10;99.90;;;;;;5074119;28;20486;-63
2022/11/02 06:42:28;;;;;;;31.60;5.33;;;;;;;;;;5066102;28;20502;-62
2022/11/02 06:45:01;;;;;;;43.33;6.33;;;;;;;;;;5073613;28;20573;-63
2022/11/02 06:47:30;;;;;;;28.67;5.37;;;12.10;99.90;;;;;;5072773;28;20963;-63
2022/11/02 06:49:58;;;;;;;39.73;8.70;;;12.10;99.90;;;;;;5067303;28;21049;-63
2022/11/02 06:52:25;;;;;;;68.30;13.43;;;;;;;;;;5063743;28;20482;-62
2022/11/02 06:54:52;;;;;;;59.93;8.70;;;12.10;99.90;;;;;;5073689;28;20486;-62
2022/11/02 06:57:19;;;;;;;33.63;7.00;;;12.20;99.90;;;;;;5078975;28;20507;-62
2022/11/02 06:59:46;;;;;;;39.90;7.13;;;12.10;99.90;;;;;;5058892;28;20485;-62
2022/11/02 07:02:13;;;;;;;70.37;11.50;;;;;;;;;;5077541;28;20486;-63
2022/11/02 07:04:39;;;;;;;52.00;8.07;;;12.20;99.90;;;;;;5071903;28;20939;-62
2022/11/02 07:07:07;;;;;;;62.03;10.10;;;12.10;99.90;;;;;;5064760;28;20466;-62
2022/11/02 07:09:34;;;;;;;38.90;7.40;;;12.10;99.90;;;;;;5065073;28;20486;-62
2022/11/02 07:12:01;;;;;;;67.10;8.90;;;;;;;;;;5071168;28;20474;-63
2022/11/02 07:14:28;;;;;;;50.23;8.40;;;12.10;99.90;;;;;;5076830;28;20474;-63
2022/11/02 07:16:54;;;;;;;51.27;10.50;;;12.20;99.90;;;;;;5071668;28;20849;-62
2022/11/02 07:19:21;;;;;;;43.67;9.27;;;12.30;99.90;;;;;;5078675;28;21014;-63
2022/11/02 07:21:48;;;;;;;29.47;6.07;;;;;;;;;;5074713;28;20479;-62
2022/11/02 07:24:17;;;;;;;28.00;7.13;;;;;;;;;;5067288;28;20539;-63
2022/11/02 07:26:43;;;;;;;31.43;6.20;;;13.30;99.90;;;;;;5068624;28;20473;-63
2022/11/02 07:29:10;;;;;;;35.73;7.53;;;13.80;99.90;;;;;;5067522;28;20485;-63
2022/11/02 07:31:37;;;;;;;32.63;8.40;;;14.20;99.90;;;;;;5072213;28;20487;-63
2022/11/02 07:34:04;;;;;;;26.27;6.83;;;;;;;;;;5070471;28;20987;-63
2022/11/02 07:36:31;;;;;;;30.50;6.00;;;;;;;;;;5074720;28;20501;-63
2022/11/02 07:38:58;;;;;;;40.20;8.87;;;15.20;99.60;;;;;;5063999;28;20494;-63
2022/11/02 07:41:27;;;;;;;60.40;10.67;;;;;;;;;;5072247;28;20904;-63
2022/11/02 07:43:54;;;;;;;47.63;7.80;;;;;;;;;;5059810;28;20493;-62
2022/11/02 07:46:21;;;;;;;57.97;9.30;;;;;;;;;;5069143;28;20478;-63
2022/11/02 07:48:48;;;;;;;28.37;6.43;;;17.00;99.40;;;;;;5049729;28;20482;-63
2022/11/02 07:51:15;;;;;;;20.63;7.30;;;;;;;;;;5073152;28;20465;-63
2022/11/02 07:53:42;;;;;;;40.00;8.50;;;14.60;99.50;;;;;;5074496;28;20482;-63
2022/11/02 07:56:09;;;;;;;45.13;8.93;;;14.90;99.90;;;;;;5060125;28;20677;-63
2022/11/02 07:58:37;;;;;;;38.60;8.83;;;15.70;99.40;;;;;;5083509;28;20497;-63
2022/11/02 08:01:04;;;;;;;42.83;6.30;;;16.10;98.80;;;;;;5069388;28;20990;-63
2022/11/02 08:03:30;;;;;;;43.80;7.27;;;16.30;98.90;;;;;;5073503;28;20487;-62
2022/11/02 08:06:00;;;;;;;47.97;8.50;;;16.30;98.00;;;;;;5068823;28;20473;-62
2022/11/02 08:08:27;;;;;;;37.30;8.10;;;;;;;;;;5072758;28;20832;-62
2022/11/02 08:10:55;;;;;;;39.17;5.80;;;;;;;;;;5070926;28;20577;-62
2022/11/02 08:13:24;;;;;;;26.13;6.63;;;14.90;98.80;;;;;;5072579;28;20838;-62
2022/11/02 08:15:54;;;;;;;28.27;7.40;;;;;;;;;;5067826;28;20711;-62
2022/11/02 08:18:22;;;;;;;41.03;8.50;;;;;;;;;;5073758;28;21063;-62
2022/11/02 08:20:49;;;;;;;45.73;7.83;;;;;;;;;;5070354;28;20650;-62
2022/11/02 08:23:18;;;;;;;27.77;7.83;;;14.80;99.10;;;;;;5077558;28;20535;-62
2022/11/02 08:25:46;;;;;;;111.00;11.00;;;;;;;;;;5068013;28;20743;-62
2022/11/02 08:28:15;;;;;;;39.73;6.77;;;16.00;99.20;;;;;;5068856;28;20692;-62
2022/11/02 08:30:42;;;;;;;31.40;6.00;;;16.30;98.30;;;;;;5061446;28;20535;-63
2022/11/02 08:33:14;;;;;;;26.97;6.37;;;;;;;;;;5072078;28;20861;-62
2022/11/02 08:35:41;;;;;;;30.53;6.13;;;;;;;;;;5064313;28;21123;-62
2022/11/02 08:38:09;;;;;;;43.27;6.37;;;;;;;;;;5088105;28;20559;-62
2022/11/02 08:40:36;;;;;;;33.20;7.57;;;;;;;;;;5056141;28;20751;-63
2022/11/02 08:43:05;;;;;;;26.77;7.20;;;16.30;97.40;;;;;;5071128;28;20490;-61
2022/11/02 08:45:33;;;;;;;42.37;7.90;;;16.30;98.20;;;;;;5068138;28;20489;-63
2022/11/02 08:48:00;;;;;;;18.93;6.00;;;16.20;97.80;;;;;;5071941;28;20830;-62
2022/11/02 08:50:29;;;;;;;21.87;5.53;;;;;;;;;;5062234;28;20517;-63
2022/11/02 08:52:56;;;;;;;41.50;5.33;;;;;;;;;;5065891;28;20482;-63
2022/11/02 08:55:23;;;;;;;30.00;7.43;;;16.10;98.00;;;;;;5071398;28;20486;-62
2022/11/02 08:57:51;;;;;;;23.30;5.53;;;16.20;98.50;;;;;;5073584;28;20478;-62
2022/11/02 09:00:20;;;;;;;38.40;5.77;;;16.10;97.20;;;;;;5075341;28;20474;-62
2022/11/02 09:02:59;;;;;;;47.40;5.77;;;16.00;96.90;;;;;;5074752;28;20489;-63
2022/11/02 09:05:26;;;;;;;25.67;6.80;;;16.20;97.20;;;;;;5066754;28;20871;-63
2022/11/02 09:07:57;;;;;;;36.60;6.87;;;;;;;;;;5067252;28;20490;-63
2022/11/02 09:10:24;;;;;;;33.90;6.60;;;16.10;97.10;;;;;;5061244;28;20806;-63
2022/11/02 09:12:50;;;;;;;51.33;7.77;;;16.10;96.60;;;;;;5068595;28;20853;-63
2022/11/02 09:15:17;;;;;;;35.33;8.93;;;16.00;96.80;;;;;;5062606;28;20787;-63
2022/11/02 09:17:47;;;;;;;17.63;4.50;;;15.90;96.40;;;;;;5078451;28;20481;-63
2022/11/02 09:20:13;;;;;;;26.57;5.70;;;15.80;97.40;;;;;;5052969;28;20582;-64
2022/11/02 09:22:41;;;;;;;25.93;7.00;;;;;;;;;;5068951;28;20494;-63
2022/11/02 09:25:10;;;;;;;49.00;8.73;;;;;;;;;;5073933;28;20477;-63
2022/11/02 09:27:37;;;;;;;32.43;5.03;;;15.40;97.60;;;;;;5067887;28;20473;-64
2022/11/02 09:30:06;;;;;;;31.53;6.90;;;15.60;98.10;;;;;;5072340;28;20485;-63
2022/11/02 09:32:33;;;;;;;19.93;6.43;;;;;;;;;;5071533;28;20491;-63
2022/11/02 09:35:00;;;;;;;34.90;6.63;;;15.40;97.30;;;;;;5077342;28;21409;-63
2022/11/02 09:37:27;;;;;;;34.40;6.73;;;15.50;97.50;;;;;;5052199;28;20555;-63
2022/11/02 09:39:54;;;;;;;42.47;8.03;;;;;;;;;;5086607;28;20546;-63
2022/11/02 09:42:26;;;;;;;34.07;4.70;;;15.40;96.30;;;;;;5069663;28;20999;-63
2022/11/02 09:44:57;;;;;;;37.97;8.07;;;;;;;;;;5074421;28;20488;-63
2022/11/02 09:47:25;;;;;;;35.70;8.73;;;;;;;;;;5070103;28;20490;-63
2022/11/02 09:49:54;;;;;;;45.90;9.23;;;15.50;96.90;;;;;;5073939;28;21001;-63
2022/11/02 09:52:27;;;;;;;41.40;9.63;;;15.60;97.10;;;;;;5070319;28;20485;-63
2022/11/02 09:54:54;;;;;;;37.87;6.20;;;;;;;;;;5064064;28;20486;-62
2022/11/02 09:57:29;;;;;;;29.63;7.70;;;16.00;97.30;;;;;;5074475;28;20469;-63
2022/11/02 09:59:56;;;;;;;52.10;8.73;;;;;;;;;;5051208;28;20476;-63
2022/11/02 10:02:34;;;;;;;36.03;5.80;;;16.50;96.30;;;;;;5070082;28;20493;-63
2022/11/02 10:05:09;;;;;;;31.50;6.90;;;;;;;;;;5070203;28;21797;-62
2022/11/02 10:07:53;;;;;;;44.30;6.73;;;;;;;;;;5079079;28;20482;-63
2022/11/02 10:10:28;;;;;;;60.97;11.03;;;17.30;95.70;;;;;;5064765;28;20497;-63
2022/11/02 10:13:06;;;;;;;42.77;8.43;;;17.30;96.50;;;;;;5063875;28;20488;-63
2022/11/02 10:15:39;;;;;;;59.27;9.43;;;17.10;96.10;;;;;;5078349;28;20508;-63
2022/11/02 10:18:09;;;;;;;40.07;6.90;;;17.10;95.20;;;;;;5063358;28;20499;-63
2022/11/02 10:20:41;;;;;;;34.70;8.23;;;17.10;95.30;;;;;;5052777;28;20478;-62
2022/11/02 10:23:15;;;;;;;44.60;6.40;;;16.90;94.80;;;;;;5071471;28;20602;-62
2022/11/02 10:25:42;;;;;;;47.40;9.00;;;;;;;;;;5058079;28;20463;-62
2022/11/02 10:28:17;;;;;;;30.07;6.37;;;16.30;95.60;;;;;;5061036;28;20952;-62
2022/11/02 10:30:45;;;;;;;49.93;7.47;;;;;;;;;;5071362;28;20903;-62
2022/11/02 10:33:14;;;;;;;64.87;10.83;;;;;;;;;;5069187;28;20485;-62
2022/11/02 10:35:52;;;;;;;59.40;9.00;;;15.60;95.40;;;;;;5067998;28;20535;-61
2022/11/02 10:38:31;;;;;;;55.90;8.83;;;15.40;95.30;;;;;;5065825;28;20897;-62
2022/11/02 10:41:12;;;;;;;35.87;7.20;;;15.20;94.90;;;;;;5062144;28;20481;-62
2022/11/02 10:43:47;;;;;;;50.67;8.97;;;;;;;;;;5061224;28;20485;-62
2022/11/02 10:46:31;;;;;;;54.07;8.37;;;15.40;95.00;;;;;;5068901;28;20495;-62
2022/11/02 10:49:05;;;;;;;52.10;7.07;;;15.50;95.40;;;;;;5076150;28;20569;-62
2022/11/02 10:51:32;;;;;;;47.17;6.03;;;;;;;;;;5075205;28;20478;-62
2022/11/02 10:53:59;;;;;;;60.00;10.00;;;;;;;;;;5071887;28;20532;-62
2022/11/02 10:56:30;;;;;;;54.80;9.80;;;;;;;;;;5069686;28;20474;-62
2022/11/02 10:59:02;;;;;;;62.40;8.30;;;15.30;95.50;;;;;;5064069;28;20484;-62
2022/11/02 11:01:31;;;;;;;37.80;7.63;;;15.50;95.80;;;;;;5064348;28;20904;-63
2022/11/02 11:04:00;;;;;;;35.33;7.20;;;15.60;94.90;;;;;;5080313;28;20474;-63
2022/11/02 11:06:30;;;;;;;55.80;8.70;;;15.80;95.00;;;;;;5067426;28;20486;-63
2022/11/02 11:09:04;;;;;;;50.17;9.43;;;16.00;95.50;;;;;;5059879;28;20478;-63
2022/11/02 11:11:33;;;;;;;40.17;5.63;;;;;;;;;;5059882;28;20493;-63
2022/11/02 11:14:03;;;;;;;32.47;8.20;;;;;;;;;;5060306;28;20559;-63
2022/11/02 11:16:36;;;;;;;33.70;5.60;;;16.10;94.40;;;;;;5076032;28;20482;-64
2022/11/02 11:19:05;;;;;;;35.47;5.20;;;16.10;93.90;;;;;;5068807;28;20967;-63
2022/11/02 11:21:40;;;;;;;31.40;5.70;;;;;;;;;;5060920;28;20593;-64
2022/11/02 11:24:21;;;;;;;45.07;5.50;;;16.50;94.60;;;;;;5079056;28;20478;-63
2022/11/02 11:27:01;;;;;;;23.90;5.83;;;16.80;94.50;;;;;;5068316;28;20497;-63
2022/11/02 11:29:32;;;;;;;27.57;4.80;;;17.20;94.20;;;;;;5060515;28;20495;-63
2022/11/02 11:32:01;;;;;;;29.03;7.00;;;17.40;93.80;;;;;;5078831;28;20689;-63
2022/11/02 11:34:30;;;;;;;20.37;4.37;;;;;;;;;;5066396;28;20474;-63
2022/11/02 11:37:08;;;;;;;43.50;8.47;;;17.30;93.40;;;;;;5048136;28;20788;-63
2022/11/02 11:39:37;;;;;;;34.67;7.10;;;17.20;92.50;;;;;;5055187;28;20486;-63
2022/11/02 11:42:05;;;;;;;34.47;6.00;;;17.10;92.50;;;;;;5049235;28;20474;-64
2022/11/02 11:44:34;;;;;;;25.47;6.40;;;17.20;93.90;;;;;;5077442;28;20496;-64
2022/11/02 11:47:02;;;;;;;40.03;8.60;;;;;;;;;;5070544;28;20482;-63
2022/11/02 11:49:31;;;;;;;40.83;6.17;;;;;;;;;;5055998;28;20535;-62
2022/11/02 11:51:59;;;;;;;27.30;6.10;;;17.70;92.70;;;;;;5081934;28;20494;-62
2022/11/02 11:54:27;;;;;;;33.17;5.33;;;17.90;93.90;;;;;;5057660;28;21012;-62
2022/11/02 11:56:56;;;;;;;38.10;8.50;;;18.10;93.20;;;;;;5080820;28;20497;-63
2022/11/02 11:59:29;;;;;;;34.73;9.40;;;18.20;92.40;;;;;;5078985;28;20545;-63
2022/11/02 12:01:59;;;;;;;46.53;7.73;;;17.90;91.50;;;;;;5059120;28;20807;-63
2022/11/02 12:04:30;;;;;;;42.83;8.47;;;;;;;;;;5071791;28;20490;-63
2022/11/02 12:07:17;;;;;;;47.07;10.33;;;19.20;92.90;;;;;;5051762;28;20478;-62
2022/11/02 12:09:47;;;;;;;20.53;6.03;;;;;;;;;;5069618;28;20478;-62
2022/11/02 12:12:17;;;;;;;54.23;10.83;;;;;;;;;;5067738;28;20574;-63
2022/11/02 12:14:55;;;;;;;26.60;6.77;;;17.30;92.20;;;;;;5074295;28;20755;-62
2022/11/02 12:17:50;;;;;;;39.17;9.07;;;17.40;92.20;;;;;;5067958;28;20497;-63
2022/11/02 12:20:32;;;;;;;24.23;7.43;;;17.50;92.30;;;;;;5064396;28;20860;-63
2022/11/02 12:23:08;;;;;;;42.63;6.00;;;17.80;91.30;;;;;;5068436;28;20738;-62
2022/11/02 12:25:41;;;;;;;24.97;6.47;;;;;;;;;;5057554;28;20469;-62
2022/11/02 12:28:22;;;;;;;40.70;6.60;;;18.00;91.60;;;;;;5065478;28;20490;-63
2022/11/02 12:30:59;;;;;;;14.93;4.30;;;17.90;90.50;;;;;;5070231;28;20474;-62
2022/11/02 12:33:40;;;;;;;27.80;6.87;;;17.90;89.30;;;;;;5072423;28;20485;-62
2022/11/02 12:36:21;;;;;;;40.80;6.70;;;18.00;89.20;;;;;;5079302;28;20482;-63
2022/11/02 12:39:02;;;;;;;31.13;5.73;;;18.10;90.00;;;;;;5064513;28;20497;-63
2022/11/02 12:41:52;;;;;;;19.17;5.03;;;18.00;90.30;;;;;;5074067;28;20565;-62
2022/11/02 12:44:34;;;;;;;21.13;5.60;;;;;;;;;;5065997;28;20849;-63
2022/11/02 12:47:14;;;;;;;21.80;5.73;;;18.20;90.20;;;;;;5063725;28;20490;-62
2022/11/02 12:49:46;;;;;;;20.97;5.63;;;;;;;;;;5058006;28;20557;-62
2022/11/02 12:52:26;;;;;;;45.40;6.30;;;18.10;89.40;;;;;;5055986;28;20483;-63
2022/11/02 12:54:56;;;;;;;38.13;7.47;;;;;;;;;;5067736;28;20467;-64
2022/11/02 12:57:25;;;;;;;22.70;4.50;;;18.10;90.00;;;;;;5068430;28;20489;-64
2022/11/02 12:59:54;;;;;;;23.93;4.77;;;18.00;90.00;;;;;;5083353;28;20473;-64
2022/11/02 13:02:24;;;;;;;15.23;5.30;;;;;;;;;;5063346;28;20477;-64
2022/11/02 13:04:58;;;;;;;21.03;3.03;;;17.90;86.60;;;;;;5075233;28;20466;-64
2022/11/02 13:07:29;;;;;;;20.33;2.40;;;;;;;;;;5063014;28;20478;-63
2022/11/02 13:09:59;;;;;;;20.77;2.83;;;;;;;;;;5069028;28;20489;-64
2022/11/02 13:12:27;;;;;;;24.17;2.90;;;18.10;89.20;;;;;;5055894;28;20805;-63
2022/11/02 13:14:57;;;;;;;17.53;2.53;;;18.20;90.00;;;;;;5080878;28;20482;-63
2022/11/02 13:17:31;;;;;;;17.93;3.03;;;18.30;89.60;;;;;;5067665;28;20493;-63
2022/11/02 13:20:05;;;;;;;33.77;4.73;;;18.40;88.10;;;;;;5070178;28;21081;-64
2022/11/02 13:22:35;;;;;;;19.27;3.83;;;18.60;88.30;;;;;;5064246;28;20681;-63
2022/11/02 13:25:12;;;;;;;20.03;4.33;;;18.30;87.20;;;;;;5077865;28;20528;-63
2022/11/02 13:27:46;;;;;;;30.33;2.93;;;;;;;;;;5061088;28;20985;-63
2022/11/02 13:30:15;;;;;;;24.53;3.70;;;18.40;90.00;;;;;;5072596;28;20473;-64
2022/11/02 13:32:45;;;;;;;23.80;3.10;;;18.40;89.30;;;;;;5070033;28;20486;-63
2022/11/02 13:35:19;;;;;;;11.13;2.87;;;18.60;88.40;;;;;;5063929;28;20504;-62
2022/11/02 13:37:51;;;;;;;15.93;2.47;;;18.80;88.30;;;;;;5070879;28;20619;-64